TAF KGRR
AMD KGRR 280716Z 2807/2906 28005KT 6SM BR BKN006 OVC015 FM280900 28006KT P6SM BKN015 OVC035 FM281100 28010KT P6SM BKN022 OVC040 FM281300 29012G20KT P6SM OVC045 FM281800 29015G25KT P6SM -SHSN SCT025 OVC045 FM290000 32008KT P6SM BKN035=
METAR KGRR
WC KGRR
WS KGRR
WV KGRR